createdAt,value
2024-03-07T00:01:28.248Z,100480.26
2024-03-07T00:03:56.397Z,100475.95
2024-03-07T00:06:23.190Z,100480.08
2024-03-07T00:08:50.915Z,100482.33
2024-03-07T00:11:19.175Z,100479.44
2024-03-07T00:13:46.161Z,100484.09
2024-03-07T00:16:12.995Z,100482.05
2024-03-07T00:18:41.306Z,100480.89
2024-03-07T00:21:08.272Z,100482.26
2024-03-07T00:23:35.146Z,100482.45
2024-03-07T00:26:03.538Z,100479.39
2024-03-07T00:28:30.792Z,100480.27
2024-03-07T00:30:57.591Z,100476.19
2024-03-07T00:33:26.578Z,100475.88
2024-03-07T00:35:55.382Z,100473.50
2024-03-07T00:38:24.653Z,100473.69
2024-03-07T00:40:51.654Z,100473.18
2024-03-07T00:43:18.595Z,100471.11
2024-03-07T00:45:46.872Z,100471.95
2024-03-07T00:48:13.783Z,100471.10
2024-03-07T00:50:41.192Z,100470.27
2024-03-07T00:53:09.475Z,100469.41
2024-03-07T00:55:36.599Z,100464.80
2024-03-07T00:58:03.663Z,100466.67
2024-03-07T01:00:31.933Z,100466.84
2024-03-07T01:02:58.887Z,100467.37
2024-03-07T01:05:26.049Z,100463.77
2024-03-07T01:07:54.209Z,100462.27
2024-03-07T01:10:21.350Z,100462.44
2024-03-07T01:12:48.280Z,100456.27
2024-03-07T01:15:16.869Z,100459.35
2024-03-07T01:17:43.927Z,100459.53
2024-03-07T01:20:11.334Z,100454.59
2024-03-07T01:22:39.618Z,100455.64
2024-03-07T01:25:06.379Z,100454.13
2024-03-07T01:27:33.166Z,100457.08
2024-03-07T01:30:01.239Z,100454.67
2024-03-07T01:32:28.199Z,100452.48
2024-03-07T01:34:55.428Z,100451.63
2024-03-07T01:37:23.566Z,100457.13
2024-03-07T01:39:50.367Z,100453.36
2024-03-07T01:42:17.342Z,100456.45
2024-03-07T01:44:45.543Z,100456.82
2024-03-07T01:47:12.595Z,100461.61
2024-03-07T01:49:39.615Z,100459.55
2024-03-07T01:52:07.889Z,100464.52
2024-03-07T01:54:34.829Z,100461.44
2024-03-07T01:57:02.176Z,100462.65
2024-03-07T01:59:30.485Z,100463.52
2024-03-07T02:01:57.407Z,100457.85
2024-03-07T02:04:24.347Z,100464.02
2024-03-07T02:06:52.424Z,100460.92
2024-03-07T02:09:19.193Z,100461.27
2024-03-07T02:11:46.069Z,100460.26
2024-03-07T02:14:14.383Z,100458.04
2024-03-07T02:16:41.832Z,100455.30
2024-03-07T02:19:08.790Z,100454.27
2024-03-07T02:21:36.956Z,100448.42
2024-03-07T02:24:03.903Z,100454.25
2024-03-07T02:26:30.654Z,100455.09
2024-03-07T02:28:58.918Z,100454.25
2024-03-07T02:31:25.768Z,100450.48
2024-03-07T02:33:52.588Z,100449.80
2024-03-07T02:36:20.787Z,100450.63
2024-03-07T02:38:48.057Z,100452.84
2024-03-07T02:41:14.989Z,100451.15
2024-03-07T02:43:43.150Z,100451.52
2024-03-07T02:46:10.084Z,100451.53
2024-03-07T02:48:37.195Z,100450.52
2024-03-07T02:51:05.302Z,100449.85
2024-03-07T02:53:32.285Z,100450.34
2024-03-07T02:55:59.290Z,100451.87
2024-03-07T02:58:27.477Z,100450.52
2024-03-07T03:00:54.406Z,100453.77
2024-03-07T03:03:21.197Z,100456.38
2024-03-07T03:05:49.469Z,100454.33
2024-03-07T03:08:16.433Z,100454.16
2024-03-07T03:10:43.105Z,100458.95
2024-03-07T03:13:11.141Z,100457.23
2024-03-07T03:15:38.027Z,100459.30
2024-03-07T03:18:05.543Z,100462.75
2024-03-07T03:20:34.115Z,100463.46
2024-03-07T03:23:10.864Z,100465.73
2024-03-07T03:25:47.467Z,100470.73
2024-03-07T03:28:14.350Z,100468.53
2024-03-07T03:30:41.127Z,100468.89
2024-03-07T03:33:09.393Z,100469.73
2024-03-07T03:35:36.350Z,100472.30
2024-03-07T03:38:03.227Z,100469.90
2024-03-07T03:40:31.261Z,100470.59
2024-03-07T03:42:58.017Z,100466.81
2024-03-07T03:45:25.241Z,100467.67
2024-03-07T03:47:53.578Z,100469.05
2024-03-07T03:50:20.668Z,100472.98
2024-03-07T03:52:47.688Z,100472.69
2024-03-07T03:55:15.698Z,100473.58
2024-03-07T03:57:42.702Z,100473.60
2024-03-07T04:00:09.745Z,100474.13
2024-03-07T04:02:38.077Z,100474.15
2024-03-07T04:05:04.962Z,100473.98
2024-03-07T04:07:32.239Z,100476.74
2024-03-07T04:10:00.608Z,100480.54
2024-03-07T04:12:27.606Z,100480.06
2024-03-07T04:14:54.464Z,100483.86
2024-03-07T04:17:22.719Z,100484.56
2024-03-07T04:19:49.653Z,100482.36
2024-03-07T04:22:16.652Z,100482.02
2024-03-07T04:24:44.806Z,100482.23
2024-03-07T04:27:11.977Z,100482.61
2024-03-07T04:29:38.869Z,100480.58
2024-03-07T04:32:06.989Z,100481.65
2024-03-07T04:34:33.936Z,100485.76
2024-03-07T04:37:00.782Z,100486.29
2024-03-07T04:39:29.061Z,100481.84
2024-03-07T04:41:58.168Z,100488.54
2024-03-07T04:44:27.657Z,100485.14
2024-03-07T04:46:54.494Z,100486.88
2024-03-07T04:49:21.745Z,100483.98
2024-03-07T04:51:49.919Z,100486.04
2024-03-07T04:54:16.679Z,100490.48
2024-03-07T04:56:43.520Z,100490.84
2024-03-07T04:59:11.827Z,100485.56
2024-03-07T05:01:38.735Z,100485.93
2024-03-07T05:04:05.526Z,100489.88
2024-03-07T05:06:33.739Z,100495.40
2024-03-07T05:09:00.573Z,100493.90
2024-03-07T05:11:27.422Z,100498.38
2024-03-07T05:13:55.696Z,100497.55
2024-03-07T05:16:22.540Z,100496.38
2024-03-07T05:18:49.403Z,100500.19
2024-03-07T05:21:17.549Z,100507.90
2024-03-07T05:23:44.419Z,100512.02
2024-03-07T05:26:11.440Z,100508.79
2024-03-07T05:28:40.020Z,100513.24
2024-03-07T05:31:06.872Z,100514.97
2024-03-07T05:33:33.824Z,100519.74
2024-03-07T05:36:02.117Z,100523.52
2024-03-07T05:38:29.294Z,100525.39
2024-03-07T05:40:56.273Z,100529.16
2024-03-07T05:43:24.359Z,100531.39
2024-03-07T05:45:51.389Z,100530.17
2024-03-07T05:48:18.990Z,100537.35
2024-03-07T05:50:47.897Z,100536.14
2024-03-07T05:53:15.034Z,100540.21
2024-03-07T05:55:41.930Z,100539.34
2024-03-07T05:58:10.102Z,100541.37
2024-03-07T06:00:36.995Z,100544.26
2024-03-07T06:03:03.991Z,100546.80
2024-03-07T06:05:32.323Z,100547.45
2024-03-07T06:07:59.220Z,100548.77
2024-03-07T06:10:26.303Z,100552.84
2024-03-07T06:13:05.246Z,100546.83
2024-03-07T06:15:38.897Z,100551.06
2024-03-07T06:18:06.003Z,100550.92
2024-03-07T06:20:33.014Z,100553.69
2024-03-07T06:23:01.164Z,100554.23
2024-03-07T06:25:28.004Z,100561.78
2024-03-07T06:27:54.948Z,100565.54
2024-03-07T06:30:23.232Z,100567.92
2024-03-07T06:32:50.621Z,100568.28
2024-03-07T06:35:17.658Z,100567.77
2024-03-07T06:37:45.899Z,100571.19
2024-03-07T06:40:12.840Z,100568.44
2024-03-07T06:42:39.808Z,100564.70
2024-03-07T06:45:08.066Z,100570.84
2024-03-07T06:47:35.170Z,100571.52
2024-03-07T06:50:02.357Z,100567.57
2024-03-07T06:52:30.851Z,100569.43
2024-03-07T06:54:58.197Z,100573.84
2024-03-07T06:57:25.139Z,100576.55
2024-03-07T06:59:53.653Z,100574.14
2024-03-07T07:02:20.932Z,100572.95
2024-03-07T07:04:48.022Z,100578.76
2024-03-07T07:07:16.299Z,100582.16
2024-03-07T07:09:43.340Z,100576.50
2024-03-07T07:12:10.357Z,100578.54
2024-03-07T07:14:38.809Z,100577.48
2024-03-07T07:17:09.409Z,100572.98
2024-03-07T07:19:39.314Z,100571.76
2024-03-07T07:22:06.371Z,100571.02
2024-03-07T07:24:33.617Z,100565.52
2024-03-07T07:27:02.541Z,100569.10
2024-03-07T07:29:29.593Z,100563.77
2024-03-07T07:31:56.600Z,100563.77
2024-03-07T07:34:24.975Z,100559.80
2024-03-07T07:36:52.226Z,100563.92
2024-03-07T07:39:19.180Z,100562.69
2024-03-07T07:41:47.493Z,100564.48
2024-03-07T07:44:14.548Z,100562.20
2024-03-07T07:46:41.871Z,100564.04
2024-03-07T07:49:10.346Z,100572.86
2024-03-07T07:51:37.193Z,100573.16
2024-03-07T07:54:04.240Z,100572.64
2024-03-07T07:56:32.413Z,100576.08
2024-03-07T07:58:59.633Z,100577.77
2024-03-07T08:01:26.461Z,100585.30
2024-03-07T08:03:54.648Z,100580.85
2024-03-07T08:06:21.660Z,100585.47
2024-03-07T08:08:48.600Z,100585.79
2024-03-07T08:11:17.152Z,100586.44
2024-03-07T08:13:44.174Z,100589.64
2024-03-07T08:16:11.121Z,100589.90
2024-03-07T08:18:39.409Z,100592.98
2024-03-07T08:21:06.441Z,100592.25
2024-03-07T08:23:33.635Z,100596.73
2024-03-07T08:26:02.175Z,100599.61
2024-03-07T08:28:29.220Z,100604.06
2024-03-07T08:30:56.067Z,100603.38
2024-03-07T08:33:24.422Z,100604.25
2024-03-07T08:35:51.690Z,100604.77
2024-03-07T08:38:19.189Z,100604.40
2024-03-07T08:40:47.221Z,100601.77
2024-03-07T08:43:14.374Z,100601.52
2024-03-07T08:45:41.416Z,100600.02
2024-03-07T08:48:09.802Z,100605.26
2024-03-07T08:50:37.262Z,100601.59
2024-03-07T08:53:04.299Z,100604.42
2024-03-07T08:55:32.452Z,100604.48
2024-03-07T08:57:59.518Z,100602.65
2024-03-07T09:00:27.723Z,100601.15
2024-03-07T09:02:57.154Z,100603.98
2024-03-07T09:05:24.845Z,100602.66
2024-03-07T09:07:52.424Z,100601.35
2024-03-07T09:10:20.689Z,100602.61
2024-03-07T09:12:47.739Z,100601.80
2024-03-07T09:15:14.747Z,100597.25
2024-03-07T09:17:43.242Z,100595.55
2024-03-07T09:20:11.867Z,100598.33
2024-03-07T09:22:41.257Z,100595.84
2024-03-07T09:25:08.503Z,100592.45
2024-03-07T09:27:35.453Z,100595.59
2024-03-07T09:30:03.673Z,100595.11
2024-03-07T09:32:30.907Z,100592.45
2024-03-07T09:34:58.058Z,100596.01
2024-03-07T09:37:26.402Z,100598.35
2024-03-07T09:39:53.452Z,100599.32
2024-03-07T09:42:20.699Z,100597.54
2024-03-07T09:44:49.421Z,100599.34
2024-03-07T09:47:16.454Z,100603.77
2024-03-07T09:49:43.476Z,100605.13
2024-03-07T09:52:11.749Z,100608.27
2024-03-07T09:54:38.701Z,100605.91
2024-03-07T09:57:05.869Z,100607.66
2024-03-07T09:59:34.287Z,100607.95
2024-03-07T10:02:01.477Z,100603.88
2024-03-07T10:04:28.631Z,100607.86
2024-03-07T10:06:57.321Z,100606.92
2024-03-07T10:09:24.253Z,100610.30
2024-03-07T10:11:51.148Z,100611.30
2024-03-07T10:14:19.396Z,100616.27
2024-03-07T10:16:46.377Z,100619.15
2024-03-07T10:19:13.238Z,100617.38
2024-03-07T10:21:41.388Z,100616.20
2024-03-07T10:24:08.277Z,100614.04
2024-03-07T10:26:36.013Z,100611.33
2024-03-07T10:29:04.624Z,100612.02
2024-03-07T10:31:31.659Z,100610.66
2024-03-07T10:33:58.717Z,100609.36
2024-03-07T10:36:27.100Z,100608.94
2024-03-07T10:38:54.164Z,100613.83
2024-03-07T10:41:21.629Z,100610.94
2024-03-07T10:43:49.982Z,100609.02
2024-03-07T10:46:17.027Z,100610.05
2024-03-07T10:48:44.559Z,100610.68
2024-03-07T10:51:13.035Z,100608.36
2024-03-07T10:53:40.048Z,100609.51
2024-03-07T10:56:07.255Z,100616.02
2024-03-07T10:58:35.354Z,100609.83
2024-03-07T11:01:02.323Z,100614.77
2024-03-07T11:03:29.634Z,100611.86
2024-03-07T11:05:58.218Z,100609.66
2024-03-07T11:08:25.750Z,100606.88
2024-03-07T11:10:52.770Z,100605.55
2024-03-07T11:13:21.098Z,100602.74
2024-03-07T11:15:48.154Z,100597.20
2024-03-07T11:18:15.444Z,100600.13
2024-03-07T11:20:44.116Z,100595.29
2024-03-07T11:23:11.231Z,100593.67
2024-03-07T11:25:38.286Z,100594.04
2024-03-07T11:28:06.766Z,100594.88
2024-03-07T11:30:33.799Z,100589.52
2024-03-07T11:33:00.708Z,100589.91
2024-03-07T11:35:29.051Z,100586.30
2024-03-07T11:37:56.176Z,100584.31
2024-03-07T11:40:23.055Z,100581.27
2024-03-07T11:42:51.390Z,100580.15
2024-03-07T11:45:18.647Z,100578.88
2024-03-07T11:47:45.842Z,100575.15
2024-03-07T11:50:14.285Z,100571.29
2024-03-07T11:52:41.827Z,100566.73
2024-03-07T11:55:08.749Z,100568.52
2024-03-07T11:57:37.053Z,100564.37
2024-03-07T12:00:04.160Z,100565.88
2024-03-07T12:02:31.448Z,100563.96
2024-03-07T12:04:59.725Z,100561.13
2024-03-07T12:07:26.544Z,100559.60
2024-03-07T12:09:53.385Z,100562.13
2024-03-07T12:12:21.578Z,100558.73
2024-03-07T12:14:49.102Z,100559.80
2024-03-07T12:17:16.192Z,100556.58
2024-03-07T12:19:44.681Z,100557.20
2024-03-07T12:22:11.619Z,100555.98
2024-03-07T12:24:38.772Z,100555.04
2024-03-07T12:27:07.055Z,100561.56
2024-03-07T12:29:34.001Z,100559.44
2024-03-07T12:32:01.135Z,100569.98
2024-03-07T12:34:31.234Z,100568.34
2024-03-07T12:36:58.303Z,100567.52
2024-03-07T12:39:25.257Z,100569.54
2024-03-07T12:41:54.006Z,100566.25
2024-03-07T12:44:21.235Z,100570.48
2024-03-07T12:46:48.332Z,100569.75
2024-03-07T12:49:16.709Z,100565.93
2024-03-07T12:51:43.660Z,100564.70
2024-03-07T12:54:10.739Z,100561.27
2024-03-07T12:56:39.530Z,100564.09
2024-03-07T12:59:06.644Z,100564.95
2024-03-07T13:01:33.744Z,100565.14
2024-03-07T13:04:01.898Z,100564.60
2024-03-07T13:06:28.909Z,100565.62
2024-03-07T13:08:55.925Z,100566.17
2024-03-07T13:11:25.504Z,100572.30
2024-03-07T13:13:52.685Z,100572.35
2024-03-07T13:16:19.857Z,100569.08
2024-03-07T13:18:49.089Z,100563.20
2024-03-07T13:21:16.240Z,100566.78
2024-03-07T13:23:43.381Z,100564.52
2024-03-07T13:26:11.734Z,100567.75
2024-03-07T13:28:38.680Z,100569.89
2024-03-07T13:31:05.718Z,100571.83
2024-03-07T13:33:34.328Z,100570.57
2024-03-07T13:36:01.489Z,100563.78
2024-03-07T13:38:28.769Z,100565.85
2024-03-07T13:40:56.776Z,100562.36
2024-03-07T13:43:23.963Z,100559.05
2024-03-07T13:45:51.179Z,100557.81
2024-03-07T13:48:19.749Z,100556.93
2024-03-07T13:50:55.665Z,100560.52
2024-03-07T13:53:27.413Z,100560.52
2024-03-07T13:55:55.818Z,100556.82
2024-03-07T13:58:25.626Z,100558.27
2024-03-07T14:00:52.553Z,100564.36
2024-03-07T14:03:20.169Z,100562.52
2024-03-07T14:05:48.606Z,100562.75
2024-03-07T14:08:15.805Z,100561.44
2024-03-07T14:10:42.894Z,100565.77
2024-03-07T14:13:11.001Z,100559.51
2024-03-07T14:15:37.812Z,100561.88
2024-03-07T14:18:04.793Z,100560.60
2024-03-07T14:20:33.065Z,100561.35
2024-03-07T14:23:00.122Z,100562.46
2024-03-07T14:25:27.490Z,100563.38
2024-03-07T14:27:55.759Z,100562.88
2024-03-07T14:30:22.799Z,100559.23
2024-03-07T14:32:50.021Z,100556.61
2024-03-07T14:35:18.467Z,100554.52
2024-03-07T14:37:45.686Z,100556.25
2024-03-07T14:40:12.737Z,100552.48
2024-03-07T14:42:40.819Z,100554.34
2024-03-07T14:45:08.189Z,100552.29
2024-03-07T14:47:35.232Z,100549.53
2024-03-07T14:50:03.688Z,100542.65
2024-03-07T14:52:30.832Z,100539.56
2024-03-07T14:54:57.695Z,100538.80
2024-03-07T14:57:26.097Z,100536.64
2024-03-07T14:59:53.101Z,100534.36
2024-03-07T15:02:20.343Z,100530.92
2024-03-07T15:04:48.834Z,100528.39
2024-03-07T15:07:16.301Z,100525.89
2024-03-07T15:09:43.441Z,100528.19
2024-03-07T15:12:11.856Z,100528.74
2024-03-07T15:14:40.444Z,100523.98
2024-03-07T15:17:10.113Z,100515.62
2024-03-07T15:19:37.276Z,100519.45
2024-03-07T15:22:04.561Z,100520.82
2024-03-07T15:24:32.989Z,100517.05
2024-03-07T15:27:00.461Z,100518.13
2024-03-07T15:29:27.716Z,100519.75
2024-03-07T15:31:56.087Z,100518.29
2024-03-07T15:34:23.096Z,100519.24
2024-03-07T15:36:50.065Z,100522.09
2024-03-07T15:39:18.570Z,100522.90
2024-03-07T15:41:45.814Z,100522.62
2024-03-07T15:44:13.070Z,100524.94
2024-03-07T15:46:41.336Z,100523.80
2024-03-07T15:49:08.740Z,100525.25
2024-03-07T15:51:36.142Z,100521.52
2024-03-07T15:54:04.499Z,100522.42
2024-03-07T15:56:31.710Z,100522.30
2024-03-07T15:58:58.819Z,100525.41
2024-03-07T16:01:27.011Z,100523.89
2024-03-07T16:03:53.940Z,100524.27
2024-03-07T16:06:20.808Z,100528.26
2024-03-07T16:08:49.108Z,100528.09
2024-03-07T16:11:16.146Z,100530.48
2024-03-07T16:13:43.145Z,100530.65
2024-03-07T16:16:11.214Z,100529.80
2024-03-07T16:18:38.216Z,100532.40
2024-03-07T16:21:05.502Z,100534.65
2024-03-07T16:23:34.001Z,100533.45
2024-03-07T16:26:01.035Z,100533.29
2024-03-07T16:28:28.092Z,100527.15
2024-03-07T16:30:56.160Z,100529.09
2024-03-07T16:33:23.249Z,100531.20
2024-03-07T16:35:50.508Z,100531.06
2024-03-07T16:38:18.732Z,100537.63
2024-03-07T16:40:45.779Z,100538.86
2024-03-07T16:43:14.009Z,100542.46
2024-03-07T16:45:42.856Z,100547.12
2024-03-07T16:48:09.897Z,100547.97
2024-03-07T16:50:36.948Z,100554.00
2024-03-07T16:53:05.306Z,100554.52
2024-03-07T16:55:32.560Z,100553.11
2024-03-07T17:00:30.456Z,100554.41
2024-03-07T17:02:57.538Z,100551.80
2024-03-07T17:05:24.479Z,100550.92
2024-03-07T17:07:52.841Z,100552.62
2024-03-07T17:10:19.690Z,100555.36
2024-03-07T17:12:46.599Z,100554.33
2024-03-07T17:15:14.772Z,100552.45
2024-03-07T17:17:42.337Z,100558.28
2024-03-07T17:20:09.395Z,100559.00
2024-03-07T17:22:37.783Z,100561.75
2024-03-07T17:25:04.706Z,100560.06
2024-03-07T17:27:31.656Z,100556.14
2024-03-07T17:29:59.806Z,100560.98
2024-03-07T17:32:26.860Z,100558.25
2024-03-07T17:34:54.124Z,100562.73
2024-03-07T17:37:22.601Z,100560.84
2024-03-07T17:39:49.344Z,100559.27
2024-03-07T17:42:16.297Z,100560.63
2024-03-07T17:44:44.381Z,100562.46
2024-03-07T17:47:11.140Z,100559.69
2024-03-07T17:49:38.151Z,100561.38
2024-03-07T17:52:06.321Z,100557.93
2024-03-07T17:54:33.267Z,100560.52
2024-03-07T17:57:00.358Z,100561.35
2024-03-07T17:59:29.107Z,100563.43
2024-03-07T18:01:56.049Z,100563.09
2024-03-07T18:04:22.988Z,100562.77
2024-03-07T18:06:51.156Z,100567.41
2024-03-07T18:09:18.005Z,100568.30
2024-03-07T18:11:45.023Z,100565.39
2024-03-07T18:14:13.335Z,100566.95
2024-03-07T18:16:40.364Z,100569.02
2024-03-07T18:19:07.430Z,100569.04
2024-03-07T18:21:35.588Z,100572.80
2024-03-07T18:24:02.588Z,100570.92
2024-03-07T18:26:29.519Z,100568.83
2024-03-07T18:28:57.873Z,100568.14
2024-03-07T18:31:24.818Z,100566.08
2024-03-07T18:33:52.239Z,100569.16
2024-03-07T18:36:20.839Z,100571.92
2024-03-07T18:38:47.889Z,100569.38
2024-03-07T18:41:15.136Z,100567.16
2024-03-07T18:43:43.515Z,100563.59
2024-03-07T18:46:10.425Z,100563.13
2024-03-07T18:48:37.871Z,100566.25
2024-03-07T18:51:06.578Z,100566.28
2024-03-07T18:53:33.675Z,100568.02
2024-03-07T18:56:00.691Z,100566.67
2024-03-07T18:58:28.774Z,100571.16
2024-03-07T19:00:55.538Z,100570.32
2024-03-07T19:03:23.233Z,100570.33
2024-03-07T19:05:52.375Z,100572.38
2024-03-07T19:08:19.510Z,100568.25
2024-03-07T19:10:46.472Z,100569.95
2024-03-07T19:13:14.832Z,100570.08
2024-03-07T19:15:41.680Z,100569.21
2024-03-07T19:18:08.588Z,100569.02
2024-03-07T19:20:37.124Z,100573.66
2024-03-07T19:23:04.166Z,100574.34
2024-03-07T19:25:31.091Z,100574.52
2024-03-07T19:27:59.709Z,100576.77
2024-03-07T19:30:29.196Z,100577.29
2024-03-07T19:32:57.803Z,100574.91
2024-03-07T19:35:24.753Z,100576.48
2024-03-07T19:37:51.747Z,100574.42
2024-03-07T19:40:19.929Z,100575.46
2024-03-07T19:42:46.771Z,100573.89
2024-03-07T19:45:13.630Z,100575.73
2024-03-07T19:47:41.923Z,100571.94
2024-03-07T19:50:09.245Z,100574.15
2024-03-07T19:52:38.820Z,100572.23
2024-03-07T19:55:08.140Z,100570.85
2024-03-07T19:57:35.099Z,100572.39
2024-03-07T20:00:02.038Z,100571.38
2024-03-07T20:02:30.412Z,100569.14
2024-03-07T20:04:57.359Z,100565.38
2024-03-07T20:07:24.308Z,100569.52
2024-03-07T20:09:52.435Z,100569.38
2024-03-07T20:12:19.301Z,100568.70
2024-03-07T20:14:46.190Z,100567.54
2024-03-07T20:17:14.436Z,100567.71
2024-03-07T20:19:41.386Z,100569.27
2024-03-07T20:22:08.327Z,100564.42
2024-03-07T20:24:36.494Z,100562.67
2024-03-07T20:27:03.728Z,100562.30
2024-03-07T20:29:30.937Z,100560.39
2024-03-07T20:31:59.215Z,100564.66
2024-03-07T20:34:26.224Z,100563.80
2024-03-07T20:36:53.268Z,100567.08
2024-03-07T20:39:21.447Z,100562.80
2024-03-07T20:41:48.546Z,100560.09
2024-03-07T20:44:15.536Z,100564.25
2024-03-07T20:46:43.914Z,100562.73
2024-03-07T20:49:11.262Z,100563.95
2024-03-07T20:51:38.422Z,100563.79
2024-03-07T20:54:06.757Z,100565.51
2024-03-07T20:56:33.886Z,100562.92
2024-03-07T20:59:00.886Z,100563.77
2024-03-07T21:01:29.055Z,100564.95
2024-03-07T21:03:59.077Z,100564.25
2024-03-07T21:06:28.384Z,100562.22
2024-03-07T21:08:55.388Z,100566.00
2024-03-07T21:11:22.688Z,100562.80
2024-03-07T21:13:50.847Z,100564.58
2024-03-07T21:16:17.791Z,100563.46
2024-03-07T21:18:44.950Z,100562.86
2024-03-07T21:21:13.277Z,100568.45
2024-03-07T21:23:40.491Z,100566.48
2024-03-07T21:26:07.418Z,100565.52
2024-03-07T21:28:35.585Z,100563.88
2024-03-07T21:31:02.428Z,100564.11
2024-03-07T21:33:29.585Z,100564.52
2024-03-07T21:35:58.065Z,100567.66
2024-03-07T21:38:25.055Z,100567.73
2024-03-07T21:40:52.154Z,100567.63
2024-03-07T21:43:20.228Z,100571.10
2024-03-07T21:45:47.164Z,100569.95
2024-03-07T21:48:14.160Z,100569.64
2024-03-07T21:50:42.512Z,100568.66
2024-03-07T21:53:09.446Z,100569.20
2024-03-07T21:55:36.697Z,100568.02
2024-03-07T21:58:04.980Z,100566.84
2024-03-07T22:00:32.282Z,100569.09
2024-03-07T22:03:01.971Z,100569.11
2024-03-07T22:05:32.416Z,100571.70
2024-03-07T22:08:00.402Z,100569.00
2024-03-07T22:10:29.822Z,100563.05
2024-03-07T22:12:56.673Z,100562.89
2024-03-07T22:15:23.949Z,100561.71
2024-03-07T22:17:52.894Z,100558.98
2024-03-07T22:20:20.059Z,100553.20
2024-03-07T22:22:46.900Z,100548.42
2024-03-07T22:25:15.063Z,100550.14
2024-03-07T22:27:42.050Z,100548.27
2024-03-07T22:30:08.978Z,100551.19
2024-03-07T22:32:37.194Z,100551.70
2024-03-07T22:35:04.875Z,100547.63
2024-03-07T22:37:32.148Z,100546.09
2024-03-07T22:40:00.356Z,100541.31
2024-03-07T22:42:27.466Z,100540.30
2024-03-07T22:44:54.421Z,100543.37
2024-03-07T22:47:22.771Z,100542.35
2024-03-07T22:49:49.656Z,100545.25
2024-03-07T22:52:16.474Z,100541.49
2024-03-07T22:54:45.972Z,100542.17
2024-03-07T22:57:14.148Z,100541.85
2024-03-07T22:59:43.698Z,100543.38
2024-03-07T23:02:10.602Z,100548.48
2024-03-07T23:04:37.541Z,100547.63
2024-03-07T23:07:05.822Z,100547.63
2024-03-07T23:09:32.768Z,100547.46
2024-03-07T23:11:59.726Z,100548.48
2024-03-07T23:14:27.926Z,100548.98
2024-03-07T23:16:54.916Z,100545.74
2024-03-07T23:19:22.189Z,100544.20
2024-03-07T23:21:50.452Z,100539.75
2024-03-07T23:24:17.460Z,100539.73
2024-03-07T23:26:44.608Z,100536.83
2024-03-07T23:29:12.824Z,100532.71
2024-03-07T23:31:39.767Z,100532.19
2024-03-07T23:34:06.748Z,100537.12
2024-03-07T23:36:34.890Z,100537.11
2024-03-07T23:39:02.210Z,100535.23
2024-03-07T23:41:29.230Z,100533.52
2024-03-07T23:43:57.460Z,100533.14
2024-03-07T23:46:24.513Z,100532.60
2024-03-07T23:48:51.764Z,100529.50
2024-03-07T23:51:20.340Z,100530.16
2024-03-07T23:53:47.188Z,100530.30
2024-03-07T23:56:14.334Z,100525.36
2024-03-07T23:58:42.426Z,100525.84
